Time;durP1;ratioP1;P1;durP2;ratioP2;P2;SDS_P1;SDS_P2;PMS_P1;PMS_P2;Temp;Humidity;BMP_temperature;BMP_pressure;BME280_temperature;BME280_humidity;BME280_pressure;Samples;Min_cycle;Max_cycle;Signal;HPM_P1;HPM_P2
2024/04/04 00:02:01;;;;;;;6.97;1.52;;;;;;;14.73;67.18;100339.22;5032456;28;20037;-73
2024/04/04 00:04:28;;;;;;;3.50;1.50;;;;;;;14.94;66.83;100346.50;5031793;28;20030;-73
2024/04/04 00:06:54;;;;;;;6.95;1.80;;;;;;;14.85;70.40;100348.94;5031419;28;20044;-73
2024/04/04 00:09:19;;;;;;;9.35;2.30;;;;;;;14.88;70.12;100349.00;5031917;28;20399;-74
2024/04/04 00:11:45;;;;;;;14.63;2.45;;;;;;;14.86;70.88;100340.28;5003903;28;20067;-74
2024/04/04 00:14:11;;;;;;;7.70;1.70;;;;;;;14.94;69.73;100338.69;5031813;28;20084;-73
2024/04/04 00:16:39;;;;;;;6.63;1.80;;;;;;;14.87;72.62;100331.66;5031600;28;20041;-74
2024/04/04 00:19:05;;;;;;;11.30;2.28;;;;;;;14.78;73.95;100331.47;5031641;28;20029;-74
2024/04/04 00:21:30;;;;;;;14.05;2.35;;;;;;;14.79;73.97;100339.31;5031576;28;20040;-74
2024/04/04 00:23:59;;;;;;;5.50;2.00;;;;;;;14.69;75.40;100338.28;5031815;28;20097;-74
2024/04/04 00:26:25;;;;;;;13.05;2.10;;;;;;;14.83;75.12;100335.06;5031156;28;20033;-74
2024/04/04 00:28:51;;;;;;;12.25;2.45;;;;;;;14.92;73.57;100336.94;5031444;28;20029;-73
2024/04/04 00:31:16;;;;;;;10.38;1.92;;;;;;;14.95;72.60;100337.81;5032318;28;20025;-73
2024/04/04 00:33:42;;;;;;;12.30;2.25;;;;;;;15.02;71.92;100334.50;5031292;28;20032;-74
2024/04/04 00:36:07;;;;;;;6.13;2.25;;;;;;;15.11;71.96;100341.56;5021223;28;20048;-75
2024/04/04 00:38:34;;;;;;;10.75;2.00;;;;;;;15.10;72.77;100338.94;5031290;28;20025;-77
2024/04/04 00:41:01;;;;;;;6.95;2.05;;;;;;;15.08;73.23;100332.84;5031121;28;20037;-76
2024/04/04 00:43:26;;;;;;;8.10;1.63;;;;;;;14.91;73.94;100333.44;5031169;28;20061;-75
2024/04/04 00:45:52;;;;;;;8.18;1.95;;;;;;;14.65;74.29;100335.59;5030968;28;20069;-77
2024/04/04 00:48:18;;;;;;;5.90;2.03;;;;;;;14.71;73.48;100333.97;5031041;28;20506;-75
2024/04/04 00:50:44;;;;;;;8.82;2.08;;;;;;;14.51;74.18;100297.19;5021809;28;20033;-76
2024/04/04 00:53:10;;;;;;;6.25;1.77;;;;;;;14.58;75.02;100337.16;5030833;28;20029;-75
2024/04/04 00:55:36;;;;;;;6.70;1.67;;;;;;;14.53;70.37;100331.88;5030504;28;20021;-76
2024/04/04 00:58:03;;;;;;;5.63;2.00;;;;;;;14.58;73.36;100331.97;5031096;28;20033;-76
2024/04/04 01:00:29;;;;;;;5.28;2.30;;;;;;;14.62;74.62;100322.53;5030801;28;20510;-76
2024/04/04 01:02:55;;;;;;;8.20;1.75;;;;;;;14.57;74.99;100312.03;5031831;28;20056;-76
2024/04/04 01:05:21;;;;;;;8.82;1.83;;;;;;;14.67;74.08;100319.16;5030520;28;20033;-76
2024/04/04 01:07:48;;;;;;;5.13;1.85;;;;;;;14.57;73.31;100299.91;5029899;28;20041;-76
2024/04/04 01:10:14;;;;;;;5.53;1.65;;;;;;;14.30;74.61;100282.09;5030595;28;20041;-76
2024/04/04 01:12:40;;;;;;;8.00;1.88;;;;;;;14.14;77.07;100306.88;5030716;28;20046;-76
2024/04/04 01:15:06;;;;;;;6.97;1.90;;;;;;;14.34;77.19;100345.34;5030343;28;20094;-77
2024/04/04 01:17:32;;;;;;;5.68;1.70;;;;;;;14.19;78.19;100335.53;5030988;28;20094;-76
2024/04/04 01:19:58;;;;;;;5.47;1.70;;;;;;;14.20;78.91;100339.91;5031219;28;20480;-75
2024/04/04 01:22:23;;;;;;;9.85;2.40;;;;;;;14.10;78.62;100325.84;5017168;28;20033;-75
2024/04/04 01:24:49;;;;;;;9.00;2.10;;;;;;;14.16;78.74;100345.88;5030140;28;20045;-75
2024/04/04 01:27:14;;;;;;;3.42;1.65;;;;;;;13.38;79.24;100261.22;5030279;28;20037;-75
2024/04/04 01:29:40;;;;;;;4.00;1.65;;;;;;;13.57;75.60;100311.78;5030362;28;20063;-75
2024/04/04 01:32:05;;;;;;;4.35;1.45;;;;;;;13.64;73.98;100345.63;5030825;28;20045;-75
2024/04/04 01:34:31;;;;;;;4.13;1.60;;;;;;;13.50;72.71;100322.00;5032644;28;20021;-75
2024/04/04 01:36:57;;;;;;;3.25;1.35;;;;;;;13.50;72.46;100333.22;5030442;28;20033;-76
2024/04/04 01:39:22;;;;;;;6.28;1.55;;;;;;;13.19;72.83;100331.59;5030341;28;20022;-75
2024/04/04 01:41:48;;;;;;;3.42;1.30;;;;;;;12.76;74.95;100346.94;5033695;28;20025;-75
2024/04/04 01:44:13;;;;;;;3.45;1.48;;;;;;;12.90;75.24;100353.38;5030750;28;20083;-76
2024/04/04 01:46:40;;;;;;;1.75;1.20;;;;;;;12.53;75.81;100310.97;5030079;28;20150;-74
2024/04/04 01:49:06;;;;;;;2.83;1.20;;;;;;;12.50;75.51;100297.94;5029567;28;20129;-74
2024/04/04 01:51:32;;;;;;;3.35;1.40;;;;;;;12.89;75.17;100345.56;5029960;28;20523;-74
2024/04/04 01:53:57;;;;;;;5.05;1.60;;;;;;;12.99;74.65;100337.19;5034644;28;20037;-74
2024/04/04 01:56:23;;;;;;;2.33;1.25;;;;;;;13.00;73.66;100325.13;5029924;28;20111;-74
2024/04/04 01:58:48;;;;;;;6.85;1.58;;;;;;;13.15;72.68;100346.22;5030609;28;20102;-74
2024/04/04 02:01:14;;;;;;;3.20;1.40;;;;;;;13.17;72.67;100359.19;5029813;28;20052;-74
2024/04/04 02:03:39;;;;;;;4.93;1.23;;;;;;;13.13;74.29;100342.69;5029739;28;20022;-75
2024/04/04 02:06:05;;;;;;;4.00;1.20;;;;;;;13.14;73.95;100334.09;5029094;28;20033;-74
2024/04/04 02:08:30;;;;;;;3.35;1.35;;;;;;;13.10;73.24;100321.91;5029185;28;20091;-74
2024/04/04 02:10:56;;;;;;;2.70;1.20;;;;;;;13.28;71.93;100344.78;5030169;28;20017;-75
2024/04/04 02:13:22;;;;;;;3.65;1.40;;;;;;;13.36;72.04;100319.91;5029889;28;20377;-74
2024/04/04 02:15:47;;;;;;;4.43;1.23;;;;;;;13.32;72.31;100305.16;5037099;28;20041;-74
2024/04/04 02:18:15;;;;;;;4.47;1.27;;;;;;;13.51;71.95;100349.69;5029844;28;20033;-74
2024/04/04 02:20:41;;;;;;;4.75;1.20;;;;;;;13.26;71.94;100341.28;5029110;28;20100;-74
2024/04/04 02:23:06;;;;;;;5.22;1.23;;;;;;;12.93;72.57;100339.59;5029545;28;20029;-74
2024/04/04 02:25:32;;;;;;;2.88;1.15;;;;;;;12.88;72.08;100336.03;5028980;28;20021;-74
2024/04/04 02:27:57;;;;;;;4.07;1.30;;;;;;;13.15;71.88;100330.66;5024851;28;20116;-74
2024/04/04 02:30:23;;;;;;;4.00;1.30;;;;;;;13.29;72.34;100325.78;5029519;28;20052;-75
2024/04/04 02:32:49;;;;;;;4.35;1.27;;;;;;;13.19;71.86;100296.19;5029520;28;20036;-75
2024/04/04 02:35:15;;;;;;;2.78;1.17;;;;;;;13.38;71.23;100332.94;5029176;28;20021;-75
2024/04/04 02:37:41;;;;;;;5.75;1.90;;;;;;;13.51;73.90;100332.38;5030130;28;20124;-74
2024/04/04 02:40:08;;;;;;;8.48;2.00;;;;;;;13.50;74.52;100325.44;5029506;28;20456;-74
2024/04/04 02:42:35;;;;;;;6.43;1.63;;;;;;;13.45;75.78;100321.00;5029381;28;20480;-75
2024/04/04 02:45:02;;;;;;;2.60;1.50;;;;;;;13.28;79.28;100329.22;5029285;28;20042;-74
2024/04/04 02:47:29;;;;;;;2.58;1.40;;;;;;;12.87;83.21;100316.13;5029647;28;20112;-74
2024/04/04 02:49:54;;;;;;;4.15;1.88;;;;;;;12.84;85.17;100335.06;5029664;28;20037;-74
2024/04/04 02:52:20;;;;;;;7.95;1.98;;;;;;;12.72;86.51;100334.75;5028554;28;20494;-76
2024/04/04 02:54:46;;;;;;;6.53;2.00;;;;;;;12.60;85.88;100286.13;5028863;28;20056;-76
2024/04/04 02:57:11;;;;;;;5.10;2.08;;;;;;;12.98;84.96;100319.88;5029006;28;20478;-76
2024/04/04 02:59:37;;;;;;;6.00;1.90;;;;;;;12.97;84.07;100312.94;5028966;28;20088;-74
2024/04/04 03:02:03;;;;;;;7.50;2.50;;;;;;;13.08;83.79;100324.47;5028910;28;20033;-73
2024/04/04 03:04:29;;;;;;;5.80;1.60;;;;;;;13.09;83.77;100325.31;5028659;28;20423;-73
2024/04/04 03:06:54;;;;;;;4.45;1.75;;;;;;;12.89;85.62;100327.44;5028633;28;20056;-73
2024/04/04 03:09:20;;;;;;;8.95;2.00;;;;;;;12.94;84.74;100305.09;5028865;28;20026;-73
2024/04/04 03:11:46;;;;;;;5.43;1.70;;;;;;;13.04;82.65;100311.38;5021420;28;20037;-74
2024/04/04 03:14:11;;;;;;;3.60;1.67;;;;;;;12.79;80.71;100327.19;5028931;28;20040;-73
2024/04/04 03:16:37;;;;;;;6.90;1.63;;;;;;;12.48;81.08;100306.50;5029038;28;20029;-74
2024/04/04 03:19:02;;;;;;;11.32;1.67;;;;;;;12.56;81.61;100334.38;5028544;28;20036;-74
2024/04/04 03:21:28;;;;;;;6.43;2.00;;;;;;;12.51;82.42;100332.47;5028623;28;20038;-74
2024/04/04 03:23:53;;;;;;;7.90;1.88;;;;;;;12.44;82.49;100328.84;5028815;28;20033;-74
2024/04/04 03:26:19;;;;;;;5.93;1.80;;;;;;;12.45;81.23;100322.84;5028589;28;20033;-74
2024/04/04 03:28:44;;;;;;;7.13;2.72;;;;;;;12.34;81.82;100339.81;5028546;28;20403;-73
2024/04/04 03:31:10;;;;;;;4.82;1.83;;;;;;;12.33;82.44;100335.47;5030527;28;20033;-75
2024/04/04 03:33:35;;;;;;;9.40;2.30;;;;;;;12.10;83.87;100299.44;5032363;28;20035;-72
2024/04/04 03:36:04;;;;;;;4.95;1.77;;;;;;;12.35;83.88;100337.25;5032909;28;20729;-73
2024/04/04 03:38:30;;;;;;;5.50;1.90;;;;;;;12.38;83.57;100345.09;5032483;28;20040;-73
2024/04/04 03:40:56;;;;;;;6.38;1.92;;;;;;;12.26;83.25;100342.16;5032451;28;20103;-73
2024/04/04 03:43:22;;;;;;;6.50;2.13;;;;;;;11.74;84.00;100319.09;5033030;28;20483;-73
2024/04/04 03:45:48;;;;;;;6.35;2.83;;;;;;;11.70;85.12;100355.16;5028914;28;20021;-73
2024/04/04 03:48:17;;;;;;;8.77;2.97;;;;;;;11.58;86.36;100347.91;5037328;28;20037;-73
2024/04/04 03:50:43;;;;;;;8.00;2.70;;;;;;;11.24;86.87;100308.97;5027889;28;20025;-73
2024/04/04 03:53:08;;;;;;;7.50;2.95;;;;;;;11.64;86.54;100348.09;5026037;28;20659;-73
2024/04/04 03:55:34;;;;;;;7.32;2.75;;;;;;;11.67;86.16;100335.25;5021249;28;20026;-73
2024/04/04 03:57:59;;;;;;;7.10;2.53;;;;;;;11.84;86.14;100345.22;5030193;28;20033;-73
2024/04/04 04:00:25;;;;;;;6.20;2.58;;;;;;;11.75;85.28;100313.09;5031790;28;20081;-73
2024/04/04 04:02:51;;;;;;;5.72;2.45;;;;;;;11.87;87.26;100346.19;5039299;28;20415;-73
2024/04/04 04:05:16;;;;;;;12.32;2.92;;;;;;;11.78;86.86;100345.94;5020289;28;20030;-73
2024/04/04 04:07:42;;;;;;;11.13;3.00;;;;;;;11.79;86.47;100343.38;5031595;28;20512;-73
2024/04/04 04:10:07;;;;;;;6.60;2.30;;;;;;;11.73;86.12;100327.69;5031701;28;20025;-73
2024/04/04 04:12:34;;;;;;;8.68;2.47;;;;;;;11.96;85.81;100345.63;5032123;28;20482;-74
2024/04/04 04:15:00;;;;;;;9.00;2.90;;;;;;;12.00;85.38;100341.41;5031003;28;20482;-74
2024/04/04 04:17:26;;;;;;;9.65;3.03;;;;;;;11.96;85.88;100335.28;5031793;28;20025;-73
2024/04/04 04:19:52;;;;;;;8.02;2.60;;;;;;;11.80;86.79;100339.97;5031865;28;20064;-74
2024/04/04 04:22:18;;;;;;;10.57;2.80;;;;;;;11.89;84.86;100354.88;5031337;28;20031;-73
2024/04/04 04:24:43;;;;;;;12.05;2.80;;;;;;;11.91;85.14;100353.22;5031476;28;20029;-73
2024/04/04 04:27:09;;;;;;;5.07;2.08;;;;;;;11.88;84.33;100347.94;5031582;28;20073;-72
2024/04/04 04:29:34;;;;;;;9.00;2.25;;;;;;;11.94;84.64;100361.06;5022130;28;20041;-72
2024/04/04 04:32:00;;;;;;;8.27;2.00;;;;;;;11.95;85.60;100359.34;5031420;28;20072;-72
2024/04/04 04:34:26;;;;;;;6.80;2.00;;;;;;;12.00;83.73;100360.44;5031694;28;20025;-72
2024/04/04 04:36:59;;;;;;;7.43;2.10;;;;;;;12.05;84.17;100347.59;5032067;28;20025;-73
2024/04/04 04:39:24;;;;;;;10.23;2.00;;;;;;;12.04;84.31;100338.97;5032308;28;20041;-72
2024/04/04 04:41:50;;;;;;;5.45;1.70;;;;;;;12.10;84.75;100349.50;5023905;28;20034;-71
2024/04/04 04:44:15;;;;;;;8.13;2.17;;;;;;;12.20;83.68;100350.66;5030933;28;20028;-71
2024/04/04 04:46:42;;;;;;;8.02;2.05;;;;;;;12.37;85.01;100369.22;5031347;28;20030;-72
2024/04/04 04:49:07;;;;;;;11.07;2.40;;;;;;;12.54;84.87;100366.25;5031875;28;20037;-72
2024/04/04 04:51:33;;;;;;;7.45;2.03;;;;;;;12.54;83.31;100368.81;5030544;28;20518;-72
2024/04/04 04:53:58;;;;;;;3.17;1.75;;;;;;;12.62;83.42;100375.97;5031673;28;20048;-72
2024/04/04 04:56:24;;;;;;;5.70;1.73;;;;;;;12.39;83.23;100346.84;5023748;28;20039;-72
2024/04/04 04:58:49;;;;;;;4.75;2.20;;;;;;;12.51;83.53;100364.44;5031492;28;20037;-72
2024/04/04 05:01:15;;;;;;;4.47;1.95;;;;;;;12.59;83.79;100385.38;5031681;28;20060;-72
2024/04/04 05:03:42;;;;;;;6.72;1.95;;;;;;;12.76;83.57;100381.50;5031484;28;20538;-72
2024/04/04 05:06:07;;;;;;;7.82;2.20;;;;;;;12.93;83.31;100366.41;5031647;28;20041;-71
2024/04/04 05:08:33;;;;;;;7.10;1.92;;;;;;;13.02;82.95;100370.97;5033485;28;20419;-72
2024/04/04 05:10:59;;;;;;;5.82;2.05;;;;;;;13.05;83.37;100358.06;5031763;28;20471;-72
2024/04/04 05:13:27;;;;;;;3.47;1.92;;;;;;;13.08;82.88;100358.16;5030629;28;20029;-72
2024/04/04 05:15:54;;;;;;;5.03;2.38;;;;;;;13.17;82.37;100370.47;5003343;28;20049;-72
2024/04/04 05:18:21;;;;;;;7.38;1.85;;;;;;;13.07;82.95;100316.63;5030747;28;20049;-72
2024/04/04 05:20:47;;;;;;;3.58;2.00;;;;;;;13.31;83.45;100349.16;5031586;28;20391;-72
2024/04/04 05:23:13;;;;;;;5.88;2.38;;;;;;;13.24;83.54;100361.09;5030623;28;20022;-72
2024/04/04 05:25:39;;;;;;;6.18;2.03;;;;;;;13.16;83.61;100337.59;5030621;28;20116;-72
2024/04/04 05:28:05;;;;;;;7.95;2.10;;;;;;;13.27;82.33;100346.50;5030824;28;20103;-72
2024/04/04 05:30:31;;;;;;;4.50;1.90;;;;;;;13.45;81.89;100358.19;5029971;28;20041;-72
2024/04/04 05:33:00;;;;;;;6.47;2.55;;;;;;;13.62;81.94;100362.88;5031087;28;20043;-72
2024/04/04 05:35:25;;;;;;;6.83;2.63;;;;;;;13.65;80.79;100370.75;5005506;28;20037;-72
2024/04/04 05:37:51;;;;;;;6.32;2.10;;;;;;;13.67;81.13;100369.94;5030424;28;20695;-72
2024/04/04 05:40:16;;;;;;;6.60;2.50;;;;;;;13.47;80.73;100372.06;5029893;28;20040;-72
2024/04/04 05:42:42;;;;;;;5.47;2.25;;;;;;;13.36;80.93;100369.19;5029663;28;20030;-72
2024/04/04 05:45:07;;;;;;;5.93;2.55;;;;;;;13.11;81.08;100339.22;5029684;28;20545;-72
2024/04/04 05:47:33;;;;;;;5.82;2.28;;;;;;;13.23;80.69;100333.44;5030167;28;20022;-72
2024/04/04 05:49:58;;;;;;;5.20;2.03;;;;;;;13.63;80.13;100375.88;5030517;28;20557;-72
2024/04/04 05:52:24;;;;;;;5.78;2.75;;;;;;;13.80;81.39;100383.19;5030340;28;20024;-72
2024/04/04 05:54:51;;;;;;;7.45;2.50;;;;;;;13.94;80.91;100371.38;5029784;28;20472;-72
2024/04/04 05:57:17;;;;;;;6.70;2.40;;;;;;;14.07;80.34;100373.41;5029771;28;20499;-72
2024/04/04 05:59:43;;;;;;;5.60;2.22;;;;;;;14.21;80.17;100373.66;5029521;28;20061;-72
2024/04/04 06:02:09;;;;;;;10.55;4.45;;;;;;;14.34;81.26;100372.22;5030024;28;20529;-72
2024/04/04 06:04:35;;;;;;;7.35;2.70;;;;;;;14.47;80.86;100390.66;5029528;28;20535;-72
2024/04/04 06:07:00;;;;;;;6.28;2.63;;;;;;;14.56;80.89;100381.28;5029792;28;20052;-72
2024/04/04 06:09:26;;;;;;;5.95;2.70;;;;;;;14.54;77.77;100356.13;5017793;28;20037;-72
2024/04/04 06:11:52;;;;;;;9.68;2.60;;;;;;;14.90;75.29;100396.66;5029992;28;20026;-72
2024/04/04 06:14:17;;;;;;;6.85;2.67;;;;;;;15.03;74.32;100396.03;5028116;28;20413;-72
2024/04/04 06:16:43;;;;;;;9.23;2.83;;;;;;;15.21;73.00;100394.59;5029951;28;20052;-72
2024/04/04 06:19:08;;;;;;;5.22;2.33;;;;;;;15.31;72.67;100388.69;5019569;28;20040;-72
2024/04/04 06:21:34;;;;;;;6.68;2.55;;;;;;;15.37;71.62;100393.13;5029231;28;20453;-72
2024/04/04 06:23:59;;;;;;;6.32;2.65;;;;;;;15.46;72.90;100393.25;5029940;28;20022;-72
2024/04/04 06:26:28;;;;;;;6.55;2.47;;;;;;;15.34;73.00;100380.97;5029566;28;20116;-72
2024/04/04 06:28:55;;;;;;;12.45;2.75;;;;;;;15.48;72.05;100391.56;5015121;28;20038;-72
2024/04/04 06:31:21;;;;;;;6.63;2.30;;;;;;;15.35;71.59;100369.69;5019616;28;20504;-72
2024/04/04 06:33:47;;;;;;;7.32;2.30;;;;;;;15.48;70.49;100393.31;5029418;28;20029;-72
2024/04/04 06:36:13;;;;;;;6.10;2.50;;;;;;;15.33;71.00;100392.19;5029208;28;20037;-72
2024/04/04 06:38:39;;;;;;;6.60;2.92;;;;;;;15.19;72.42;100406.72;5029382;28;20060;-72
2024/04/04 06:41:05;;;;;;;8.18;3.08;;;;;;;15.11;72.64;100409.16;5029433;28;20056;-72
2024/04/04 06:43:30;;;;;;;8.38;3.17;;;;;;;15.15;72.83;100403.19;5029896;28;20121;-72
2024/04/04 06:45:55;;;;;;;8.02;2.63;;;;;;;15.18;74.40;100405.81;5029541;28;20026;-72
2024/04/04 06:48:22;;;;;;;6.38;2.78;;;;;;;15.25;75.51;100405.94;5029090;28;20044;-73
2024/04/04 06:50:47;;;;;;;7.07;2.70;;;;;;;15.16;71.67;100373.72;5029164;28;20400;-72
2024/04/04 06:53:13;;;;;;;8.63;3.30;;;;;;;15.28;68.07;100364.38;5028967;28;20045;-72
2024/04/04 06:55:38;;;;;;;4.90;2.83;;;;;;;15.72;67.99;100397.13;5029126;28;20053;-72
2024/04/04 06:58:04;;;;;;;5.22;2.90;;;;;;;15.76;66.66;100397.19;5029373;28;20021;-72
2024/04/04 07:00:30;;;;;;;7.25;2.85;;;;;;;15.72;67.15;100365.91;5029201;28;20484;-72
2024/04/04 07:02:55;;;;;;;5.65;2.90;;;;;;;15.63;67.04;100358.84;5028914;28;20037;-72
2024/04/04 07:05:21;;;;;;;6.95;3.10;;;;;;;15.88;66.23;100372.22;5029208;28;20507;-72
2024/04/04 07:07:46;;;;;;;10.65;3.17;;;;;;;16.15;68.68;100395.16;5033351;28;20037;-72
2024/04/04 07:10:12;;;;;;;6.95;2.92;;;;;;;16.16;68.46;100384.75;5033345;28;20091;-72
2024/04/04 07:12:37;;;;;;;5.93;2.88;;;;;;;16.35;66.37;100382.38;5032978;28;20026;-71
2024/04/04 07:15:04;;;;;;;8.90;3.20;;;;;;;16.32;63.81;100385.81;5032703;28;20022;-71
2024/04/04 07:17:30;;;;;;;7.07;2.83;;;;;;;16.38;61.60;100369.38;5032949;28;20041;-71
2024/04/04 07:19:59;;;;;;;4.50;2.60;;;;;;;16.42;59.26;100372.91;5032847;28;20029;-72
2024/04/04 07:22:28;;;;;;;5.90;3.05;;;;;;;16.62;60.89;100378.31;5000165;28;20030;-72
2024/04/04 07:24:53;;;;;;;6.65;3.17;;;;;;;16.82;57.36;100374.19;5051955;28;20522;-72
2024/04/04 07:27:19;;;;;;;5.18;2.88;;;;;;;17.00;57.60;100369.16;5033362;28;20164;-72
2024/04/04 07:29:46;;;;;;;10.55;2.78;;;;;;;17.21;56.90;100379.78;5032880;28;20037;-71
2024/04/04 07:32:12;;;;;;;10.35;2.85;;;;;;;17.27;58.16;100369.41;5028833;28;20034;-72
2024/04/04 07:34:37;;;;;;;5.35;2.70;;;;;;;17.41;56.68;100373.88;5032713;28;20812;-72
2024/04/04 07:37:03;;;;;;;10.57;2.50;;;;;;;17.53;55.53;100367.84;5032674;28;20037;-71
2024/04/04 07:39:33;;;;;;;7.70;2.80;;;;;;;17.57;55.60;100373.09;5026823;28;20032;-72
2024/04/04 07:41:59;;;;;;;5.85;2.58;;;;;;;17.70;57.02;100360.13;5032316;28;20048;-71
2024/04/04 07:44:25;;;;;;;7.50;2.88;;;;;;;17.47;58.89;100324.31;5029318;28;20026;-72
2024/04/04 07:50:51;;;;;;;7.50;2.83;;;;;;;18.01;59.45;100362.94;5032411;28;20064;-71
2024/04/04 07:53:17;;;;;;;5.35;2.70;;;;;;;17.99;59.13;100349.00;5030042;28;20032;-71
2024/04/04 07:55:42;;;;;;;7.25;2.80;;;;;;;18.15;60.09;100356.00;5032355;28;20029;-71
2024/04/04 07:58:08;;;;;;;8.45;3.00;;;;;;;18.27;57.78;100356.06;5032272;28;20199;-71
2024/04/04 08:00:33;;;;;;;7.72;3.22;;;;;;;18.39;57.12;100351.72;5031960;28;20041;-71
2024/04/04 08:02:59;;;;;;;6.28;2.55;;;;;;;18.22;56.15;100315.97;5032638;28;20049;-71
2024/04/04 08:05:27;;;;;;;5.45;2.38;;;;;;;18.43;52.57;100346.53;5031832;28;20487;-71
2024/04/04 08:07:53;;;;;;;5.03;2.50;;;;;;;18.63;51.56;100347.44;5032064;28;20037;-71
2024/04/04 08:10:19;;;;;;;15.65;3.22;;;;;;;18.75;49.87;100334.38;5032900;28;20021;-71
2024/04/04 08:12:45;;;;;;;5.72;2.03;;;;;;;18.75;55.02;100337.00;5031964;28;20052;-71
2024/04/04 08:15:14;;;;;;;5.05;2.22;;;;;;;18.92;48.53;100324.84;5032474;28;20091;-72
2024/04/04 08:17:40;;;;;;;5.03;2.40;;;;;;;19.13;47.88;100332.69;5031851;28;20079;-71
2024/04/04 08:20:14;;;;;;;4.00;1.95;;;;;;;19.19;46.45;100330.06;5031617;28;20088;-72
2024/04/04 08:22:43;;;;;;;6.22;1.95;;;;;;;19.37;46.40;100337.03;5031775;28;20021;-71
2024/04/04 08:25:11;;;;;;;;;;;;;;;19.50;47.66;100340.50;5032709;28;20040;-71
2024/04/04 08:27:36;;;;;;;8.20;2.55;;;;;;;19.65;47.52;100336.97;5031828;28;19936;-72
2024/04/04 08:30:02;;;;;;;6.63;2.00;;;;;;;19.81;46.17;100332.56;5032386;28;20459;-71
2024/04/04 08:32:28;;;;;;;5.10;1.70;;;;;;;19.78;45.57;100337.81;5022532;28;20046;-71
2024/04/04 08:34:54;;;;;;;5.53;1.92;;;;;;;19.92;43.79;100335.19;5031471;28;20033;-72
2024/04/04 08:37:19;;;;;;;4.28;1.55;;;;;;;20.10;42.91;100331.59;5031818;28;20328;-72
2024/04/04 08:39:45;;;;;;;10.25;1.85;;;;;;;20.23;43.99;100337.69;5028656;28;20025;-72
2024/04/04 08:42:11;;;;;;;6.05;1.73;;;;;;;20.32;41.76;100335.84;5031794;28;20033;-72
2024/04/04 08:44:37;;;;;;;6.75;1.90;;;;;;;20.49;41.79;100335.75;5019671;28;20092;-72
2024/04/04 08:47:06;;;;;;;3.50;1.40;;;;;;;20.59;40.02;100327.84;5037214;28;20460;-72
2024/04/04 08:49:33;;;;;;;6.88;1.83;;;;;;;20.66;42.12;100332.16;5030874;28;20029;-71
2024/04/04 08:51:59;;;;;;;5.57;1.30;;;;;;;20.66;39.06;100327.78;5029952;28;20037;-72
2024/04/04 08:54:26;;;;;;;5.18;1.45;;;;;;;20.73;38.72;100310.28;5031014;28;20030;-72
2024/04/04 08:56:51;;;;;;;5.45;1.67;;;;;;;20.51;37.85;100250.09;5030956;28;20026;-72
2024/04/04 08:59:18;;;;;;;5.00;1.23;;;;;;;21.08;41.18;100321.38;5031572;28;20430;-72
2024/04/04 09:01:44;;;;;;;4.93;1.52;;;;;;;21.25;39.72;100308.09;5029261;28;20064;-72
2024/04/04 09:04:10;;;;;;;3.47;1.10;;;;;;;21.12;43.60;100305.59;5030846;28;20060;-72
2024/04/04 09:06:37;;;;;;;7.97;1.50;;;;;;;21.17;39.74;100301.16;5030844;28;20037;-72
2024/04/04 09:09:04;;;;;;;3.47;1.48;;;;;;;21.20;41.13;100308.16;5022894;28;20076;-73
2024/04/04 09:11:30;;;;;;;11.00;1.80;;;;;;;20.95;39.55;100263.75;5022261;28;20038;-73
2024/04/04 09:14:09;;;;;;;2.78;1.83;;;;;;;21.26;39.87;100294.06;5030913;28;20029;-73
2024/04/04 09:16:42;;;;;;;4.05;1.40;;;;;;;21.29;43.49;100280.94;5027777;28;20115;-73
2024/04/04 09:19:09;;;;;;;2.22;1.27;;;;;;;21.19;43.62;100295.03;5033715;28;20034;-72
2024/04/04 09:21:36;;;;;;;3.45;1.20;;;;;;;21.14;41.32;100269.69;5030334;28;20503;-72
2024/04/04 09:24:04;;;;;;;2.90;1.40;;;;;;;21.12;39.00;100249.59;5030673;28;20033;-71
2024/04/04 09:26:31;;;;;;;3.67;1.38;;;;;;;21.61;38.34;100266.63;5030470;28;20026;-73
2024/04/04 09:28:57;;;;;;;4.57;1.33;;;;;;;21.69;37.05;100251.59;5029928;28;20041;-73
2024/04/04 09:31:27;;;;;;;5.72;1.60;;;;;;;21.80;36.80;100259.38;5030635;28;20084;-73
2024/04/04 09:33:54;;;;;;;;;;;;;;;22.03;38.16;100288.00;5031039;28;20392;-72
2024/04/04 09:36:19;;;;;;;5.22;1.45;;;;;;;22.03;38.54;100258.19;5030379;28;19921;-73
2024/04/04 09:38:45;;;;;;;6.78;1.40;;;;;;;22.32;36.33;100278.81;5030349;28;20545;-72
2024/04/04 09:41:11;;;;;;;4.00;1.65;;;;;;;22.52;35.24;100264.50;5025122;28;20029;-73
2024/04/04 09:43:36;;;;;;;4.93;1.42;;;;;;;22.47;35.92;100243.56;5027772;28;20072;-73
2024/04/04 09:46:02;;;;;;;3.13;1.27;;;;;;;22.40;37.38;100266.44;5027577;28;20033;-72
2024/04/04 09:48:28;;;;;;;4.35;1.50;;;;;;;22.55;36.56;100249.53;5021423;28;20028;-73
2024/04/04 09:50:56;;;;;;;4.65;1.70;;;;;;;22.34;38.20;100263.84;5030653;28;20045;-73
2024/04/04 09:53:22;;;;;;;4.35;1.60;;;;;;;22.18;36.90;100257.09;5030276;28;20068;-72
2024/04/04 09:55:49;;;;;;;3.78;1.52;;;;;;;22.27;37.12;100255.22;5030263;28;20108;-72
2024/04/04 09:58:15;;;;;;;3.15;1.48;;;;;;;22.29;38.32;100253.44;5030567;28;20025;-73
2024/04/04 10:00:40;;;;;;;5.22;1.40;;;;;;;22.13;36.60;100258.03;5030525;28;20232;-73
2024/04/04 10:03:12;;;;;;;3.05;1.30;;;;;;;22.14;36.65;100253.63;5030406;28;20033;-72
2024/04/04 10:05:38;;;;;;;5.20;1.40;;;;;;;22.34;37.91;100261.22;5030186;28;20450;-72
2024/04/04 10:08:13;;;;;;;4.57;1.80;;;;;;;22.44;35.92;100252.38;5017431;28;20046;-72
2024/04/04 10:10:40;;;;;;;4.97;1.45;;;;;;;22.47;36.54;100259.34;5030418;28;20088;-71
2024/04/04 10:13:07;;;;;;;2.92;1.15;;;;;;;22.78;35.02;100243.91;5030374;28;20033;-71
2024/04/04 10:15:48;;;;;;;2.22;1.40;;;;;;;23.05;34.59;100257.50;5030164;28;20037;-71
2024/04/04 10:18:17;;;;;;;4.15;1.73;;;;;;;23.06;35.36;100261.84;5030315;28;20057;-71
2024/04/04 10:20:53;;;;;;;2.35;1.25;;;;;;;22.51;34.70;100255.75;5030081;28;20033;-71
2024/04/04 10:23:24;;;;;;;4.90;1.48;;;;;;;22.91;36.83;100256.84;5030190;28;20087;-71
2024/04/04 10:25:49;;;;;;;2.15;1.20;;;;;;;23.04;33.86;100253.13;5030169;28;20120;-71
2024/04/04 10:28:15;;;;;;;5.20;1.52;;;;;;;23.06;34.68;100217.06;5030454;28;20221;-72
2024/04/04 10:30:42;;;;;;;4.03;1.73;;;;;;;23.34;32.70;100249.94;5030530;28;20523;-71
2024/04/04 10:33:09;;;;;;;2.72;1.20;;;;;;;23.11;32.67;100224.91;5030026;28;20514;-71
2024/04/04 10:35:35;;;;;;;4.40;1.50;;;;;;;23.54;33.92;100233.75;5029908;28;20041;-71
2024/04/04 10:38:10;;;;;;;5.28;1.60;;;;;;;23.50;32.06;100225.06;5029759;28;20060;-71
2024/04/04 10:40:36;;;;;;;4.20;1.40;;;;;;;23.83;31.88;100234.91;5028970;28;20097;-72
2024/04/04 10:43:08;;;;;;;7.97;1.40;;;;;;;24.02;32.46;100222.22;5029506;28;20040;-71
2024/04/04 10:45:34;;;;;;;3.00;1.35;;;;;;;24.32;31.19;100230.31;5021829;28;20079;-71
2024/04/04 10:48:00;;;;;;;2.28;1.20;;;;;;;24.32;30.67;100228.53;5029864;28;20029;-71
2024/04/04 10:50:29;;;;;;;4.97;1.25;;;;;;;23.71;32.20;100225.50;5003242;28;20060;-71
2024/04/04 10:52:55;;;;;;;3.47;1.38;;;;;;;23.78;32.03;100218.34;5029804;28;20510;-71
2024/04/04 10:55:21;;;;;;;5.03;1.40;;;;;;;24.05;31.64;100223.00;5030239;28;20030;-71
2024/04/04 10:57:52;;;;;;;3.10;1.33;;;;;;;24.41;30.17;100206.34;5017456;28;20038;-71
2024/04/04 11:00:20;;;;;;;3.90;1.20;;;;;;;24.58;30.52;100210.34;5029219;28;20052;-71
2024/04/04 11:02:47;;;;;;;6.38;1.92;;;;;;;24.59;31.43;100190.97;5029326;28;20073;-71
2024/04/04 11:05:12;;;;;;;5.80;1.38;;;;;;;24.49;29.67;100203.53;5029705;28;20048;-70
2024/04/04 11:07:45;;;;;;;3.92;1.13;;;;;;;24.69;30.82;100203.91;5029456;28;20406;-71
2024/04/04 11:10:15;;;;;;;5.18;1.38;;;;;;;24.85;29.38;100198.25;5029429;28;20044;-72
2024/04/04 11:12:43;;;;;;;6.10;1.48;;;;;;;24.81;28.85;100164.88;5029146;28;20033;-71
2024/04/04 11:15:10;;;;;;;7.15;1.45;;;;;;;24.83;28.66;100205.31;5029167;28;20650;-72
2024/04/04 11:17:37;;;;;;;3.10;1.08;;;;;;;24.19;30.31;100185.75;5029341;28;20036;-72
2024/04/04 11:20:06;;;;;;;4.72;1.40;;;;;;;24.71;28.42;100195.94;5029026;28;20033;-71
2024/04/04 11:22:35;;;;;;;;;;;;;;;24.91;28.57;100198.06;5029648;28;20407;-72
2024/04/04 11:25:01;;;;;;;3.10;1.40;;;;;;;25.00;27.71;100191.69;5029700;28;19917;-71